Time;durP1;ratioP1;P1;durP2;ratioP2;P2;SDS_P1;SDS_P2;PMS_P1;PMS_P2;Temp;Humidity;BMP_temperature;BMP_pressure;BME280_temperature;BME280_humidity;BME280_pressure;Samples;Min_cycle;Max_cycle;Signal;HPM_P1;HPM_P2
2023/01/08 00:01:44;;;;;;;8.00;3.92;;;;;;;8.85;95.94;100204.97;5022221;28;20105;-56
2023/01/08 00:04:09;;;;;;;5.53;3.80;;;;;;;8.83;96.24;100199.03;5029574;28;20083;-55
2023/01/08 00:06:35;;;;;;;6.32;3.78;;;;;;;8.83;95.77;100207.78;5024046;28;20481;-55
2023/01/08 00:09:00;;;;;;;7.22;3.90;;;;;;;8.83;95.82;100213.06;5021199;28;20458;-57
2023/01/08 00:11:26;;;;;;;7.57;4.00;;;;;;;8.86;96.24;100217.19;5019487;28;20073;-56
2023/01/08 00:13:51;;;;;;;7.10;3.95;;;;;;;8.86;96.20;100222.50;5022248;28;20492;-55
2023/01/08 00:16:17;;;;;;;6.57;3.90;;;;;;;8.87;95.92;100224.13;5026404;28;20037;-57
2023/01/08 00:18:44;;;;;;;10.18;3.95;;;;;;;8.89;95.81;100216.88;5025406;28;20469;-57
2023/01/08 00:21:10;;;;;;;7.75;4.00;;;;;;;8.88;95.92;100217.84;5023916;28;20112;-56
2023/01/08 00:23:36;;;;;;;8.75;3.65;;;;;;;8.85;96.15;100210.28;5024643;28;20052;-55
2023/01/08 00:26:03;;;;;;;6.07;3.92;;;;;;;8.86;96.31;100207.47;5024871;28;20052;-57
2023/01/08 00:28:29;;;;;;;8.48;4.28;;;;;;;8.87;96.32;100216.22;5024197;28;20033;-55
2023/01/08 00:30:54;;;;;;;6.32;3.90;;;;;;;8.87;96.49;100198.53;5018401;28;20037;-56
2023/01/08 00:33:19;;;;;;;9.23;4.22;;;;;;;8.86;96.53;100196.06;5026639;28;20140;-55
2023/01/08 00:35:45;;;;;;;6.97;3.72;;;;;;;8.86;96.16;100191.59;5021064;28;20033;-55
2023/01/08 00:38:10;;;;;;;6.63;4.00;;;;;;;8.85;96.24;100178.53;5022844;28;20091;-56
2023/01/08 00:40:35;;;;;;;8.52;4.38;;;;;;;8.85;96.85;100173.25;5020793;28;20041;-55
2023/01/08 00:43:02;;;;;;;9.35;3.80;;;;;;;8.86;96.71;100169.59;5020018;28;20552;-56
2023/01/08 00:45:27;;;;;;;6.88;3.60;;;;;;;8.88;96.36;100170.25;5022992;28;20050;-56
2023/01/08 00:47:52;;;;;;;8.20;4.10;;;;;;;8.89;96.51;100174.59;5018157;28;20040;-55
2023/01/08 00:50:17;;;;;;;7.13;3.97;;;;;;;8.89;96.99;100164.00;5024276;28;20041;-56
2023/01/08 00:52:43;;;;;;;8.43;4.00;;;;;;;8.89;96.42;100153.44;5027566;28;20026;-55
2023/01/08 00:55:08;;;;;;;8.95;4.18;;;;;;;8.87;96.28;100152.75;5025082;28;20460;-56
2023/01/08 00:57:35;;;;;;;9.60;4.05;;;;;;;8.87;96.84;100150.94;5023236;28;20110;-55
2023/01/08 01:00:01;;;;;;;6.72;3.80;;;;;;;8.87;96.87;100160.69;5024260;28;20037;-56
2023/01/08 01:02:26;;;;;;;10.40;4.40;;;;;;;8.86;97.05;100159.03;5028853;28;20052;-56
2023/01/08 01:04:52;;;;;;;9.15;4.15;;;;;;;8.86;96.98;100153.75;5027217;28;20038;-56
2023/01/08 01:07:18;;;;;;;7.65;4.22;;;;;;;8.86;96.92;100148.47;5028607;28;20029;-56
2023/01/08 01:09:43;;;;;;;10.27;4.10;;;;;;;8.86;96.96;100153.75;5021226;28;20034;-55
2023/01/08 01:12:08;;;;;;;8.88;4.20;;;;;;;8.86;97.15;100143.16;5023092;28;20033;-56
2023/01/08 01:14:37;;;;;;;9.52;4.35;;;;;;;8.81;96.81;100140.19;5029915;28;20671;-55
2023/01/08 01:17:02;;;;;;;9.73;4.38;;;;;;;8.84;96.91;100140.69;5024666;28;20088;-56
2023/01/08 01:19:28;;;;;;;9.35;4.38;;;;;;;8.85;96.79;100142.38;5029131;28;20048;-55
2023/01/08 01:21:53;;;;;;;9.63;4.10;;;;;;;8.88;96.72;100133.25;5026881;28;20577;-55
2023/01/08 01:24:20;;;;;;;10.00;4.30;;;;;;;8.86;96.85;100143.16;5025195;28;20033;-56
2023/01/08 01:26:46;;;;;;;8.55;4.47;;;;;;;8.81;96.86;100140.19;5021431;28;20029;-56
2023/01/08 01:29:11;;;;;;;8.20;4.43;;;;;;;8.85;97.17;100130.94;5022015;28;20029;-56
2023/01/08 01:31:36;;;;;;;7.75;4.20;;;;;;;8.86;96.86;100138.72;5020706;28;20045;-56
2023/01/08 01:34:02;;;;;;;10.23;4.32;;;;;;;8.84;96.76;100140.69;5026038;28;20047;-56
2023/01/08 01:36:27;;;;;;;8.15;4.40;;;;;;;8.85;97.50;100137.06;5023885;28;20036;-56
2023/01/08 01:38:55;;;;;;;9.65;4.53;;;;;;;8.86;96.86;100137.88;5023771;28;20040;-56
2023/01/08 01:41:30;;;;;;;11.70;4.72;;;;;;;8.87;96.80;100139.53;5020222;28;20679;-56
2023/01/08 01:43:58;;;;;;;9.02;4.70;;;;;;;8.85;96.63;100138.88;5021307;28;20049;-56
2023/01/08 01:46:35;;;;;;;8.65;4.50;;;;;;;8.86;97.45;100143.16;5024841;28;20067;-56
2023/01/08 01:49:06;;;;;;;12.73;4.10;;;;;;;8.85;97.19;100157.38;5027840;28;20077;-56
2023/01/08 01:51:33;;;;;;;8.10;4.15;;;;;;;8.81;97.54;100148.97;5022719;28;20033;-56
2023/01/08 01:54:01;;;;;;;6.88;3.78;;;;;;;8.84;98.08;100147.81;5025265;28;20037;-56
2023/01/08 01:56:28;;;;;;;9.93;3.80;;;;;;;8.84;98.07;100155.75;5029331;28;20488;-56
2023/01/08 01:58:53;;;;;;;7.28;3.80;;;;;;;8.81;97.36;100156.06;5018425;28;20109;-56
2023/01/08 02:01:19;;;;;;;8.40;3.30;;;;;;;8.83;97.35;100164.66;5025222;28;20172;-56
2023/01/08 02:03:44;;;;;;;4.70;3.15;;;;;;;8.74;97.33;100177.06;5025955;28;20155;-56
2023/01/08 02:06:35;;;;;;;6.45;3.25;;;;;;;8.65;97.84;100173.59;5022155;28;20639;-58
2023/01/08 02:09:25;;;;;;;5.78;3.00;;;;;;;8.66;97.47;100169.97;5024346;28;20104;-56
2023/01/08 02:12:15;;;;;;;6.85;3.05;;;;;;;8.47;96.24;100150.75;5029789;28;20078;-56
2023/01/08 02:14:52;;;;;;;7.90;2.20;;;;;;;8.35;95.13;100144.16;5026188;28;20073;-56
2023/01/08 02:17:27;;;;;;;4.68;2.10;;;;;;;8.25;96.63;100140.84;5023217;28;20045;-56
2023/01/08 02:20:00;;;;;;;7.90;2.13;;;;;;;8.15;95.82;100133.88;5026129;28;20025;-56
2023/01/08 02:22:53;;;;;;;8.05;2.08;;;;;;;8.10;96.58;100123.00;5021351;28;20549;-56
2023/01/08 02:25:29;;;;;;;3.75;1.83;;;;;;;8.06;95.69;100129.59;5023040;28;20021;-55
2023/01/08 02:27:57;;;;;;;4.20;1.92;;;;;;;7.97;96.24;100125.25;5026552;28;20437;-56
2023/01/08 02:30:23;;;;;;;4.30;1.70;;;;;;;7.93;96.36;100127.41;5027585;28;20041;-57
2023/01/08 02:32:49;;;;;;;6.65;2.05;;;;;;;7.89;96.59;100132.19;5027022;28;20435;-54
2023/01/08 02:35:14;;;;;;;5.50;1.77;;;;;;;7.88;96.89;100125.25;5030113;28;20029;-55
2023/01/08 02:37:40;;;;;;;5.97;1.80;;;;;;;7.86;97.27;100129.88;5028248;28;20076;-56
2023/01/08 02:40:13;;;;;;;7.43;1.88;;;;;;;7.84;97.07;100134.47;5030248;28;20025;-56
2023/01/08 02:43:11;;;;;;;7.07;2.17;;;;;;;7.87;97.22;100139.44;5025851;28;20033;-56
2023/01/08 02:45:57;;;;;;;5.15;1.70;;;;;;;7.74;97.49;100120.63;5028304;28;20497;-56
2023/01/08 02:48:35;;;;;;;4.88;1.77;;;;;;;7.75;98.65;100135.47;5027731;28;20094;-55
2023/01/08 02:51:13;;;;;;;5.80;2.10;;;;;;;7.70;98.88;100121.91;5028533;28;20033;-56
2023/01/08 02:53:42;;;;;;;7.15;1.67;;;;;;;7.63;99.13;100122.56;5029899;28;20045;-56
2023/01/08 02:56:12;;;;;;;6.55;1.70;;;;;;;7.62;100.00;100126.19;5029610;28;20033;-56
2023/01/08 02:58:39;;;;;;;8.32;2.00;;;;;;;7.57;100.00;100112.63;5029625;28;20037;-56
2023/01/08 03:01:08;;;;;;;3.90;1.70;;;;;;;7.54;100.00;100112.94;5028056;28;20017;-56
2023/01/08 03:03:34;;;;;;;3.40;1.38;;;;;;;7.54;100.00;100112.94;5024703;28;20037;-57
2023/01/08 03:06:06;;;;;;;5.90;1.60;;;;;;;7.49;100.00;100107.31;5022341;28;20884;-55
2023/01/08 03:08:38;;;;;;;4.53;1.65;;;;;;;7.48;100.00;100108.31;5030336;28;20025;-56
2023/01/08 03:11:06;;;;;;;8.27;1.70;;;;;;;7.47;100.00;100104.00;5027398;28;20393;-56
2023/01/08 03:14:03;;;;;;;4.65;1.63;;;;;;;7.51;100.00;100113.28;5025190;28;20572;-56
2023/01/08 03:16:37;;;;;;;6.40;1.77;;;;;;;7.47;100.00;100114.56;5022054;28;20148;-55
2023/01/08 03:19:35;;;;;;;6.78;1.70;;;;;;;7.47;100.00;100110.13;5025322;28;20527;-56
2023/01/08 03:22:01;;;;;;;8.23;1.88;;;;;;;7.45;100.00;100103.34;5020501;28;20038;-55
2023/01/08 03:24:30;;;;;;;8.80;1.77;;;;;;;7.45;100.00;100106.00;5021269;28;20029;-55
2023/01/08 03:26:58;;;;;;;5.05;1.80;;;;;;;7.43;100.00;100105.31;5024717;28;20040;-57
2023/01/08 03:29:25;;;;;;;6.90;2.10;;;;;;;7.43;100.00;100102.66;5025327;28;20492;-57
2023/01/08 03:31:55;;;;;;;4.43;1.90;;;;;;;7.43;100.00;100089.47;5021899;28;20092;-56
2023/01/08 03:34:22;;;;;;;7.57;1.77;;;;;;;7.40;100.00;100102.00;5022676;28;20087;-56
2023/01/08 03:36:50;;;;;;;8.02;1.95;;;;;;;7.39;100.00;100089.81;5023539;28;20025;-56
2023/01/08 03:39:22;;;;;;;8.15;2.00;;;;;;;7.39;100.00;100095.09;5028619;28;20057;-56
2023/01/08 03:41:48;;;;;;;7.95;2.15;;;;;;;7.38;100.00;100089.97;5027999;28;20056;-56
2023/01/08 03:44:14;;;;;;;10.07;2.00;;;;;;;7.37;100.00;100090.97;5020635;28;20049;-55
2023/01/08 03:46:46;;;;;;;7.68;1.92;;;;;;;7.36;100.00;100095.41;5022206;28;20030;-55
2023/01/08 03:49:13;;;;;;;;;;;;;;;7.48;100.00;100097.75;5021715;28;20060;-56
2023/01/08 03:51:44;;;;;;;8.27;2.10;;;;;;;7.40;100.00;100093.25;5019420;28;19918;-55
2023/01/08 03:54:15;;;;;;;7.43;1.90;;;;;;;7.39;100.00;100079.25;5019928;28;20033;-59
2023/01/08 03:56:41;;;;;;;7.28;2.08;;;;;;;7.40;100.00;100090.63;5029134;28;20108;-55
2023/01/08 03:59:06;;;;;;;4.65;1.83;;;;;;;7.44;100.00;100088.53;5028348;28;20171;-56
2023/01/08 04:01:32;;;;;;;8.60;2.08;;;;;;;7.43;100.00;100081.56;5029273;28;20033;-55
2023/01/08 04:03:57;;;;;;;6.70;2.00;;;;;;;7.42;100.00;100085.19;5025294;28;20747;-58
2023/01/08 04:06:22;;;;;;;5.28;1.80;;;;;;;7.44;100.00;100085.88;5020074;28;20079;-56
2023/01/08 04:08:48;;;;;;;4.85;1.92;;;;;;;7.45;100.00;100084.91;5031823;28;20128;-55
2023/01/08 04:11:13;;;;;;;7.07;2.03;;;;;;;7.45;100.00;100076.97;5026800;28;20040;-55
2023/01/08 04:13:39;;;;;;;6.65;1.98;;;;;;;7.42;100.00;100064.09;5028264;28;20041;-55
2023/01/08 04:16:04;;;;;;;5.80;2.10;;;;;;;7.36;100.00;100053.19;5026656;28;20497;-55
2023/01/08 04:18:30;;;;;;;8.65;2.10;;;;;;;7.35;100.00;100056.81;5023848;28;20061;-56
2023/01/08 04:20:56;;;;;;;6.25;2.03;;;;;;;7.33;100.00;100063.25;5023781;28;20033;-56
2023/01/08 04:23:21;;;;;;;7.13;2.10;;;;;;;7.33;100.00;100069.34;5027016;28;20043;-56
2023/01/08 04:25:46;;;;;;;3.95;1.90;;;;;;;7.36;100.00;100076.94;5026302;28;20036;-56
2023/01/08 04:28:11;;;;;;;8.02;2.22;;;;;;;7.40;100.00;100070.38;5026411;28;20651;-56
2023/01/08 04:30:37;;;;;;;5.90;2.30;;;;;;;7.40;100.00;100064.25;5024491;28;20096;-56
2023/01/08 04:33:02;;;;;;;5.75;2.25;;;;;;;7.40;100.00;100057.16;5029580;28;20112;-55
2023/01/08 04:35:27;;;;;;;6.57;2.60;;;;;;;7.40;100.00;100057.16;5020315;28;20172;-55
2023/01/08 04:37:53;;;;;;;6.60;2.38;;;;;;;7.42;100.00;100050.91;5027281;28;20061;-56
2023/01/08 04:40:18;;;;;;;7.20;2.78;;;;;;;7.42;100.00;100049.09;5025216;28;20038;-57
2023/01/08 04:42:43;;;;;;;6.82;2.30;;;;;;;7.42;100.00;100054.38;5025213;28;20025;-55
2023/01/08 04:45:09;;;;;;;6.30;2.35;;;;;;;7.44;100.00;100051.59;5025900;28;20046;-56
2023/01/08 04:47:34;;;;;;;6.50;2.40;;;;;;;7.40;100.00;100043.97;5025718;28;20029;-56
2023/01/08 04:49:59;;;;;;;7.20;2.60;;;;;;;7.39;100.00;100044.97;5017817;28;20037;-55
2023/01/08 04:52:27;;;;;;;6.70;2.42;;;;;;;7.39;100.00;100063.44;5023601;28;20112;-56
2023/01/08 04:54:52;;;;;;;6.68;2.53;;;;;;;7.39;100.00;100052.88;5029460;28;20041;-57
2023/01/08 04:57:17;;;;;;;8.65;2.63;;;;;;;7.38;100.00;100061.78;5023808;28;20046;-57
2023/01/08 04:59:42;;;;;;;7.95;2.60;;;;;;;7.38;100.00;100067.06;5019547;28;20040;-58
2023/01/08 05:02:08;;;;;;;5.00;2.50;;;;;;;7.38;100.00;100064.44;5018397;28;20029;-56
2023/01/08 05:04:33;;;;;;;7.78;2.40;;;;;;;7.36;100.00;100058.47;5026761;28;20033;-56
2023/01/08 05:06:58;;;;;;;4.60;2.38;;;;;;;7.36;100.00;100058.47;5019086;28;20042;-56
2023/01/08 05:09:24;;;;;;;5.85;2.20;;;;;;;7.37;100.00;100064.59;5025309;28;20033;-56
2023/01/08 05:11:49;;;;;;;4.88;1.92;;;;;;;7.35;100.00;100062.09;5025675;28;20029;-55
2023/01/08 05:14:15;;;;;;;5.72;2.00;;;;;;;7.35;100.00;100066.56;5029850;28;20088;-56
2023/01/08 05:16:40;;;;;;;4.88;2.08;;;;;;;7.36;99.61;100062.94;5025848;28;20041;-55
2023/01/08 05:19:05;;;;;;;3.42;1.85;;;;;;;7.35;99.24;100062.09;5025102;28;20041;-56
2023/01/08 05:21:31;;;;;;;5.20;2.00;;;;;;;7.34;98.84;100060.44;5022395;28;20041;-56
2023/01/08 05:23:56;;;;;;;4.50;1.85;;;;;;;7.35;98.67;100056.81;5020832;28;20037;-57
2023/01/08 05:26:21;;;;;;;3.55;2.00;;;;;;;7.33;98.48;100056.16;5022465;28;20030;-55
2023/01/08 05:28:47;;;;;;;4.70;1.85;;;;;;;7.34;98.10;100049.06;5027268;28;20029;-56
2023/01/08 05:31:13;;;;;;;5.22;2.03;;;;;;;7.33;97.41;100055.31;5022776;28;20037;-55
2023/01/08 05:33:39;;;;;;;4.50;1.90;;;;;;;7.31;97.14;100042.31;5026123;28;20045;-56
2023/01/08 05:36:09;;;;;;;5.35;2.00;;;;;;;7.34;95.84;100025.31;5030179;28;20045;-56
2023/01/08 05:38:35;;;;;;;6.97;2.13;;;;;;;7.33;96.17;100032.44;5030691;28;20041;-54
2023/01/08 05:41:00;;;;;;;5.25;1.80;;;;;;;7.33;95.33;100037.69;5030621;28;20025;-55
2023/01/08 05:43:25;;;;;;;6.07;1.80;;;;;;;7.30;95.20;100038.00;5021909;28;20547;-56
2023/01/08 05:45:51;;;;;;;8.27;1.90;;;;;;;7.30;96.04;100040.66;5029933;28;20484;-55
2023/01/08 05:48:16;;;;;;;6.65;1.98;;;;;;;7.29;94.45;100039.00;5029995;28;20087;-54
2023/01/08 05:50:41;;;;;;;5.22;1.90;;;;;;;7.28;94.28;100037.34;5028265;28;20025;-56
2023/01/08 05:53:08;;;;;;;9.48;1.95;;;;;;;7.24;94.59;100030.72;5026759;28;20148;-56
2023/01/08 05:55:34;;;;;;;7.70;1.88;;;;;;;7.19;95.06;100033.84;5031218;28;20785;-54
2023/01/08 05:58:04;;;;;;;6.88;2.03;;;;;;;7.17;94.13;100037.63;5026740;28;20033;-55
2023/01/08 06:00:31;;;;;;;8.30;1.90;;;;;;;7.13;93.98;100037.97;5020156;28;20037;-56
2023/01/08 06:02:56;;;;;;;6.57;2.08;;;;;;;7.06;94.45;100046.66;5028220;28;20025;-56
2023/01/08 06:05:21;;;;;;;5.97;2.00;;;;;;;7.06;94.46;100052.75;5024650;28;20079;-56
2023/01/08 06:07:47;;;;;;;5.82;1.88;;;;;;;7.08;94.41;100055.22;5027100;28;20021;-56
2023/01/08 06:10:12;;;;;;;5.28;1.98;;;;;;;7.03;94.76;100055.72;5029162;28;20057;-55
2023/01/08 06:12:37;;;;;;;6.85;1.90;;;;;;;7.02;94.60;100061.97;5029333;28;20440;-57
2023/01/08 06:15:04;;;;;;;6.60;2.00;;;;;;;6.98;94.44;100060.63;5030308;28;20034;-58
2023/01/08 06:17:30;;;;;;;4.47;2.03;;;;;;;6.95;94.79;100072.31;5026771;28;20036;-55
2023/01/08 06:19:55;;;;;;;5.72;2.15;;;;;;;6.91;94.66;100064.88;5022196;28;20026;-56
2023/01/08 06:22:20;;;;;;;6.28;1.95;;;;;;;6.84;94.66;100060.22;5027546;28;20030;-56
2023/01/08 06:24:46;;;;;;;6.72;1.95;;;;;;;6.81;95.03;100057.91;5023615;28;20727;-56
2023/01/08 06:27:11;;;;;;;4.25;1.98;;;;;;;6.77;94.85;100064.47;5021734;28;20044;-56
2023/01/08 06:29:36;;;;;;;3.65;1.90;;;;;;;6.75;95.06;100066.41;5022084;28;20034;-58
2023/01/08 06:32:02;;;;;;;7.00;2.05;;;;;;;6.74;94.86;100070.03;5021310;28;20055;-56
2023/01/08 06:34:27;;;;;;;6.97;2.00;;;;;;;6.71;94.98;100070.38;5021917;28;20056;-55
2023/01/08 06:36:52;;;;;;;9.55;2.10;;;;;;;6.69;94.80;100064.41;5019354;28;20037;-56
2023/01/08 06:39:18;;;;;;;6.60;1.90;;;;;;;6.67;94.09;100079.56;5025171;28;20432;-56
2023/01/08 06:41:43;;;;;;;7.70;2.10;;;;;;;6.65;94.57;100084.97;5022725;28;20446;-57
2023/01/08 06:44:08;;;;;;;7.82;2.13;;;;;;;6.63;94.19;100088.75;5017219;28;20045;-56
2023/01/08 06:46:38;;;;;;;8.43;2.25;;;;;;;6.61;94.07;100088.06;5019459;28;20029;-56
2023/01/08 06:49:04;;;;;;;7.55;2.03;;;;;;;6.57;93.87;100090.19;5021152;28;20033;-58
2023/01/08 06:51:30;;;;;;;8.70;2.15;;;;;;;6.57;93.95;100084.94;5018263;28;20030;-56
2023/01/08 06:53:55;;;;;;;7.85;2.25;;;;;;;6.53;93.56;100088.84;5019080;28;20048;-56
2023/01/08 06:56:20;;;;;;;8.88;2.10;;;;;;;6.54;92.83;100096.59;5022091;28;20465;-56
2023/01/08 06:58:46;;;;;;;11.23;2.45;;;;;;;6.49;93.85;100088.31;5024633;28;20033;-55
2023/01/08 07:01:14;;;;;;;9.02;2.30;;;;;;;6.49;92.87;100092.75;5017731;28;20029;-55
2023/01/08 07:03:39;;;;;;;8.82;2.20;;;;;;;6.48;93.71;100089.31;5016620;28;20424;-57
2023/01/08 07:06:05;;;;;;;12.45;2.80;;;;;;;6.46;93.39;100091.25;5020065;28;20038;-55
2023/01/08 07:08:31;;;;;;;13.63;2.40;;;;;;;6.44;93.46;100088.78;5024111;28;20071;-56
2023/01/08 07:11:01;;;;;;;9.88;2.40;;;;;;;6.45;93.46;100093.06;5021977;28;20041;-57
2023/01/08 07:13:28;;;;;;;10.88;2.45;;;;;;;6.42;93.32;100085.47;5022883;28;20041;-56
2023/01/08 07:15:53;;;;;;;7.47;3.00;;;;;;;6.40;92.92;100076.06;5025285;28;20432;-56
2023/01/08 07:18:18;;;;;;;13.07;2.60;;;;;;;6.39;92.73;100074.41;5022703;28;20040;-55
2023/01/08 07:20:44;;;;;;;13.77;2.60;;;;;;;6.39;92.74;100071.78;5023767;28;20037;-56
2023/01/08 07:23:11;;;;;;;15.05;2.83;;;;;;;6.38;92.30;100078.03;5028173;28;20037;-56
2023/01/08 07:25:37;;;;;;;9.65;2.60;;;;;;;6.38;92.58;100078.03;5028491;28;20076;-56
2023/01/08 07:28:02;;;;;;;10.82;2.75;;;;;;;6.34;91.79;100080.16;5026342;28;20499;-57
2023/01/08 07:30:28;;;;;;;9.00;2.70;;;;;;;6.33;91.89;100079.31;5016589;28;20487;-55
2023/01/08 07:32:57;;;;;;;13.80;2.58;;;;;;;6.29;92.45;100077.97;5030469;28;20032;-55
2023/01/08 07:35:22;;;;;;;11.85;2.70;;;;;;;6.27;91.96;100084.38;5025286;28;20033;-56
2023/01/08 07:37:48;;;;;;;14.30;5.70;;;;;;;6.25;92.45;100081.03;5031705;28;20036;-56
2023/01/08 07:40:13;;;;;;;8.55;2.63;;;;;;;6.23;92.63;100083.84;5025751;28;20025;-55
2023/01/08 07:42:38;;;;;;;15.82;3.25;;;;;;;6.22;92.39;100087.44;5030515;28;20037;-55
2023/01/08 07:45:04;;;;;;;14.52;3.78;;;;;;;6.18;92.38;100080.84;5022459;28;20777;-55
2023/01/08 07:47:29;;;;;;;26.98;9.40;;;;;;;6.15;92.07;100073.22;5023225;28;20040;-56
2023/01/08 07:49:55;;;;;;;23.60;7.75;;;;;;;6.10;92.48;100068.41;5025063;28;20350;-56
2023/01/08 07:52:21;;;;;;;17.27;6.55;;;;;;;6.09;92.68;100068.56;5022543;28;20044;-56
2023/01/08 07:54:46;;;;;;;15.40;4.10;;;;;;;6.07;92.66;100073.16;5024931;28;20029;-56
2023/01/08 07:57:11;;;;;;;10.48;2.60;;;;;;;6.07;93.14;100078.44;5022069;28;20072;-57
2023/01/08 07:59:36;;;;;;;9.65;2.33;;;;;;;6.07;92.99;100067.91;5019256;28;20414;-55
2023/01/08 08:02:02;;;;;;;10.70;2.58;;;;;;;6.07;93.22;100067.91;5025162;28;20091;-56
2023/01/08 08:04:27;;;;;;;11.43;2.45;;;;;;;6.07;93.39;100067.91;5019752;28;20036;-55
2023/01/08 08:06:53;;;;;;;15.13;5.10;;;;;;;6.07;94.12;100071.34;5019620;28;20030;-55
2023/01/08 08:09:19;;;;;;;10.15;2.80;;;;;;;6.07;94.10;100052.91;5020453;28;20045;-56
2023/01/08 08:11:44;;;;;;;10.23;3.47;;;;;;;6.09;94.44;100052.78;5017218;28;20034;-56
2023/01/08 08:14:09;;;;;;;12.70;3.90;;;;;;;6.11;94.69;100048.19;5016305;28;20091;-55
2023/01/08 08:16:34;;;;;;;13.70;3.40;;;;;;;6.12;94.59;100047.22;5017103;28;20176;-55
2023/01/08 08:19:00;;;;;;;13.48;2.80;;;;;;;6.12;94.92;100031.44;5018066;28;20048;-56
2023/01/08 08:21:25;;;;;;;12.10;3.00;;;;;;;6.14;94.91;100032.09;5019596;28;20461;-56
2023/01/08 08:23:51;;;;;;;10.68;3.30;;;;;;;6.16;94.85;100030.13;5024915;28;20147;-56
2023/01/08 08:26:16;;;;;;;14.40;2.90;;;;;;;6.20;95.00;100031.47;5020308;28;20038;-56
2023/01/08 08:28:42;;;;;;;9.73;2.45;;;;;;;6.21;95.11;100033.13;5021259;28;20383;-57
2023/01/08 08:31:07;;;;;;;9.30;2.63;;;;;;;6.25;95.57;100037.13;5026093;28;20049;-56
2023/01/08 08:33:32;;;;;;;8.85;2.28;;;;;;;6.25;95.81;100045.03;5022276;28;20041;-56
2023/01/08 08:35:58;;;;;;;7.60;2.28;;;;;;;6.27;95.55;100035.16;5021454;28;20630;-57
2023/01/08 08:38:25;;;;;;;14.18;2.92;;;;;;;6.29;95.47;100035.84;5017527;28;20037;-56
2023/01/08 08:40:51;;;;;;;9.05;2.10;;;;;;;6.30;95.57;100037.50;5022247;28;20104;-56
2023/01/08 08:43:17;;;;;;;14.18;2.63;;;;;;;6.29;95.35;100041.09;5016042;28;20585;-55
2023/01/08 08:45:42;;;;;;;10.90;2.50;;;;;;;6.32;95.60;100030.25;5011957;28;20049;-56
2023/01/08 08:48:08;;;;;;;12.70;2.45;;;;;;;6.36;96.04;100029.97;5022601;28;20037;-55
2023/01/08 08:50:34;;;;;;;14.23;3.05;;;;;;;6.35;96.06;100033.59;5019277;28;20033;-55
2023/01/08 08:53:01;;;;;;;11.48;2.53;;;;;;;6.35;95.59;100023.03;5020736;28;20044;-56
2023/01/08 08:55:27;;;;;;;15.20;2.70;;;;;;;6.29;96.11;100033.22;5023922;28;20128;-56
2023/01/08 08:57:53;;;;;;;11.60;2.78;;;;;;;6.31;96.30;100025.97;5020039;28;20060;-55
2023/01/08 09:00:18;;;;;;;12.85;2.80;;;;;;;6.31;96.24;100014.59;5026431;28;20112;-56
2023/01/08 09:02:43;;;;;;;11.32;2.70;;;;;;;6.29;96.33;100021.84;5021925;28;20022;-55
2023/01/08 09:05:10;;;;;;;11.25;2.50;;;;;;;6.24;96.59;100022.31;5021940;28;20037;-56
2023/01/08 09:07:36;;;;;;;13.55;2.90;;;;;;;6.23;96.66;100020.66;5022204;28;20029;-55
2023/01/08 09:10:02;;;;;;;12.00;2.70;;;;;;;6.20;97.05;100010.41;5021650;28;20045;-56
2023/01/08 09:12:28;;;;;;;14.25;3.20;;;;;;;6.19;96.90;100014.03;5027266;28;20026;-55
2023/01/08 09:14:55;;;;;;;10.88;3.00;;;;;;;6.15;97.10;100015.31;5022941;28;20071;-56
2023/01/08 09:17:21;;;;;;;13.55;3.38;;;;;;;6.13;97.29;100017.28;5016072;28;20030;-55
2023/01/08 09:19:46;;;;;;;14.13;3.00;;;;;;;6.12;97.82;100013.00;5023958;28;20041;-56
2023/01/08 09:22:11;;;;;;;10.60;2.67;;;;;;;6.13;97.83;100019.91;5027336;28;20098;-56
2023/01/08 09:24:37;;;;;;;11.93;3.20;;;;;;;6.09;98.43;100006.22;5024319;28;20543;-57
2023/01/08 09:27:02;;;;;;;11.52;2.88;;;;;;;6.11;97.65;100012.16;5023469;28;20396;-55
2023/01/08 09:29:27;;;;;;;6.72;2.45;;;;;;;6.13;97.70;99998.84;5024799;28;20083;-57
2023/01/08 09:31:53;;;;;;;9.50;2.90;;;;;;;6.14;98.06;100003.13;5027835;28;20030;-56
2023/01/08 09:34:18;;;;;;;7.75;2.35;;;;;;;6.11;98.37;100001.63;5026011;28;20021;-58
2023/01/08 09:36:43;;;;;;;15.25;2.58;;;;;;;6.13;98.20;99998.84;5028853;28;20018;-56
2023/01/08 09:39:09;;;;;;;10.57;2.78;;;;;;;6.11;98.42;99992.94;5022040;28;20033;-56
2023/01/08 09:41:39;;;;;;;15.68;3.08;;;;;;;6.12;98.88;99987.47;5023137;28;22035;-55
2023/01/08 09:44:06;;;;;;;12.80;2.75;;;;;;;6.12;99.35;99981.41;5026017;28;20063;-57
2023/01/08 09:46:33;;;;;;;8.73;2.40;;;;;;;6.14;98.97;99985.53;5024646;28;20030;-56
2023/01/08 09:49:03;;;;;;;11.68;2.72;;;;;;;6.15;99.37;99981.94;5024371;28;20036;-55
2023/01/08 09:51:33;;;;;;;12.75;2.97;;;;;;;6.17;99.42;99977.31;5030516;28;20605;-55
2023/01/08 09:53:59;;;;;;;10.60;2.72;;;;;;;6.21;99.01;99979.66;5030424;28;20076;-56
2023/01/08 09:56:25;;;;;;;12.82;2.70;;;;;;;6.23;99.68;99988.22;5029263;28;20123;-55
2023/01/08 09:58:53;;;;;;;12.20;2.67;;;;;;;6.23;99.18;99978.53;5030453;28;20114;-56
2023/01/08 10:01:25;;;;;;;13.38;2.83;;;;;;;6.23;99.89;99978.53;5028644;28;20033;-56
2023/01/08 10:03:56;;;;;;;13.20;2.95;;;;;;;6.27;99.36;99979.84;5026694;28;20070;-56
2023/01/08 10:06:22;;;;;;;10.98;2.67;;;;;;;6.29;100.00;99975.28;5025114;28;20561;-54
2023/01/08 10:08:49;;;;;;;10.27;2.80;;;;;;;6.30;99.79;99974.28;5029518;28;20116;-55
2023/01/08 10:11:15;;;;;;;14.27;3.70;;;;;;;6.33;99.68;99978.44;5029281;28;20037;-55
2023/01/08 10:13:47;;;;;;;12.98;2.97;;;;;;;6.33;100.00;99970.53;5026471;28;20041;-56
2023/01/08 10:16:29;;;;;;;13.25;2.70;;;;;;;6.32;100.00;99961.78;5026770;28;20100;-55
2023/01/08 10:18:55;;;;;;;8.55;2.80;;;;;;;6.40;100.00;99962.81;5027978;28;20030;-56
2023/01/08 10:21:28;;;;;;;11.02;2.63;;;;;;;6.45;99.83;99965.81;5031140;28;20484;-55
2023/01/08 10:23:53;;;;;;;9.55;2.80;;;;;;;6.50;99.78;99965.38;5029723;28;20061;-56
2023/01/08 10:26:30;;;;;;;8.77;2.70;;;;;;;6.57;99.48;99967.19;5030732;28;20104;-56
2023/01/08 10:29:11;;;;;;;12.20;2.65;;;;;;;6.58;99.60;99960.94;5029872;28;20033;-56
2023/01/08 10:31:57;;;;;;;7.78;2.80;;;;;;;6.63;99.26;99962.28;5027542;28;20025;-56
2023/01/08 10:34:42;;;;;;;8.95;2.40;;;;;;;6.67;99.43;99967.06;5023641;28;20039;-57
2023/01/08 10:37:22;;;;;;;8.75;2.50;;;;;;;6.73;99.20;99955.09;5030880;28;20107;-56
2023/01/08 10:39:48;;;;;;;6.43;2.40;;;;;;;6.76;98.84;99957.41;5022019;28;20041;-56
2023/01/08 10:42:17;;;;;;;9.93;2.17;;;;;;;6.83;98.68;99950.53;5030751;28;20084;-55
2023/01/08 10:45:14;;;;;;;7.40;2.20;;;;;;;6.95;97.77;99944.94;5025713;28;20423;-54
2023/01/08 10:47:47;;;;;;;5.43;2.10;;;;;;;7.05;97.44;99929.81;5028669;28;20511;-57
2023/01/08 10:50:21;;;;;;;;;;;;;;;7.15;97.67;99928.88;5031847;28;20571;-57
2023/01/08 10:52:58;;;;;;;7.82;2.00;;;;;;;7.22;95.40;99920.16;5029330;28;19936;-56
2023/01/08 10:55:27;;;;;;;3.40;1.75;;;;;;;7.28;94.79;99923.94;5017379;28;20046;-56
2023/01/08 10:57:56;;;;;;;5.60;1.50;;;;;;;7.35;94.95;99914.41;5026971;28;20045;-55
2023/01/08 11:00:29;;;;;;;4.53;1.77;;;;;;;7.43;94.08;99920.66;5020493;28;20171;-55
2023/01/08 11:02:57;;;;;;;3.33;1.65;;;;;;;7.50;94.03;99916.41;5019829;28;20116;-56
2023/01/08 11:05:35;;;;;;;3.72;1.55;;;;;;;7.58;93.62;99903.19;5021366;28;20033;-56
2023/01/08 11:08:04;;;;;;;5.13;1.58;;;;;;;7.61;92.59;99910.78;5020357;28;20096;-56
2023/01/08 11:10:31;;;;;;;3.05;1.50;;;;;;;7.71;91.85;99915.06;5018258;28;20022;-56
2023/01/08 11:13:06;;;;;;;2.35;1.42;;;;;;;7.74;92.41;99906.84;5019949;28;20021;-55
2023/01/08 11:15:40;;;;;;;3.15;1.50;;;;;;;7.80;91.53;99906.19;5020727;28;20033;-56
2023/01/08 11:18:14;;;;;;;2.65;1.35;;;;;;;7.81;91.15;99897.25;5020286;28;20033;-56
2023/01/08 11:20:40;;;;;;;1.42;1.10;;;;;;;7.87;91.28;99893.13;5020335;28;20034;-57
2023/01/08 11:23:15;;;;;;;3.10;1.30;;;;;;;7.88;90.10;99882.41;5019017;28;20029;-56
2023/01/08 11:25:43;;;;;;;2.35;1.10;;;;;;;7.96;90.90;99896.56;5020202;28;20038;-56
2023/01/08 11:28:15;;;;;;;1.80;1.30;;;;;;;7.98;89.79;99882.22;5018922;28;20037;-56
2023/01/08 11:30:45;;;;;;;1.27;1.08;;;;;;;8.00;89.72;99880.22;5020203;28;20343;-55
2023/01/08 11:33:19;;;;;;;1.45;1.20;;;;;;;8.03;89.20;99868.50;5016929;28;20034;-56
2023/01/08 11:35:48;;;;;;;3.60;1.33;;;;;;;8.05;89.17;99871.81;5019076;28;20032;-54